Portada
METAR-TAF:

METAR-TAF

Aeropuertos :

Aeropuerto de Biarritz-Anglet-Bayonne

Biarritz, Francia

latitud: 43-28N, longitud: 001-32W, altitud: 75 m

Observación

El informe se hizo hace 26 minutos, a las 09:00 UTC
Viento 3 kt del este
Temperatura 12°C
Humedad 94%
Presión 1016 hPa
Visibilidad 10 km o más
sin nubes por debajo de 1500 m y sin presencia de cumulonimbus.

METAR: LFBZ 170900Z AUTO 10003KT CAVOK 12/11 Q1016 NOSIG

Hora: 10:26 (09:26 UTC)

Pronóstico

El informe se hizo hace 4 horas y 26 minutos, a las 05:00 UTC
Pronóstico válido del 17 a las 06 UTC al 18 a las 06 UTC
Viento 5 kt del este-sureste
Visibilidad 10 km o más
sin nubes por debajo de 1500 m y sin presencia de cumulonimbus.

TAF: LFBZ 170500Z 1706/1806 12005KT CAVOK

Observaciones y pronósticos meteorológicos de más de 4000 aeropuertos (mensajes METAR y TAF).

Los puntos amarillos y rojos representan las estaciones disponibles.

Ponga el ratón en el punto deseado para ver el nombre de la estación.

Haga clic para ver las observaciones y los pronósticos meteorológicos.

Para cambiar el mapa : haga clic en los botones verdes con una cruz de color negro para hacer un zoom, en el botón verde con un guión para alejar o en las flechas verdes para mapas adyacentes.


METAR-TAF: